sensor_id;sensor_type;location;lat;lon;timestamp;P1;durP1;ratioP1;P2;durP2;ratioP2
53389;SDS011;39288;42.970;1.524;2023-04-24T00:00:49;2.97;;;1.10;;
53389;SDS011;39288;42.970;1.524;2023-04-24T00:01:51;1.55;;;0.50;;
53389;SDS011;39288;42.970;1.524;2023-04-24T00:02:52;2.80;;;0.70;;
53389;SDS011;39288;42.970;1.524;2023-04-24T00:03:56;2.03;;;0.60;;
53389;SDS011;39288;42.970;1.524;2023-04-24T00:04:59;1.50;;;0.60;;
53389;SDS011;39288;42.970;1.524;2023-04-24T00:06:02;1.63;;;0.50;;
53389;SDS011;39288;42.970;1.524;2023-04-24T00:07:03;3.77;;;0.67;;
53389;SDS011;39288;42.970;1.524;2023-04-24T00:08:03;1.83;;;0.63;;
53389;SDS011;39288;42.970;1.524;2023-04-24T00:09:04;2.40;;;0.67;;
53389;SDS011;39288;42.970;1.524;2023-04-24T00:10:05;2.03;;;0.63;;
53389;SDS011;39288;42.970;1.524;2023-04-24T00:11:06;2.53;;;0.65;;
53389;SDS011;39288;42.970;1.524;2023-04-24T00:12:06;3.43;;;0.70;;
53389;SDS011;39288;42.970;1.524;2023-04-24T00:13:07;2.93;;;0.70;;
53389;SDS011;39288;42.970;1.524;2023-04-24T00:14:08;3.20;;;1.00;;
53389;SDS011;39288;42.970;1.524;2023-04-24T00:15:08;1.73;;;0.80;;
53389;SDS011;39288;42.970;1.524;2023-04-24T00:16:09;2.20;;;0.70;;
53389;SDS011;39288;42.970;1.524;2023-04-24T00:17:09;3.60;;;0.60;;
53389;SDS011;39288;42.970;1.524;2023-04-24T00:18:10;5.97;;;0.90;;
53389;SDS011;39288;42.970;1.524;2023-04-24T00:19:10;4.73;;;0.60;;
53389;SDS011;39288;42.970;1.524;2023-04-24T00:21:15;0.98;;;0.60;;
53389;SDS011;39288;42.970;1.524;2023-04-24T00:22:17;1.00;;;0.60;;
53389;SDS011;39288;42.970;1.524;2023-04-24T00:23:20;6.20;;;0.80;;
53389;SDS011;39288;42.970;1.524;2023-04-24T00:24:21;1.77;;;0.70;;
53389;SDS011;39288;42.970;1.524;2023-04-24T00:25:21;2.20;;;0.70;;
53389;SDS011;39288;42.970;1.524;2023-04-24T00:26:22;2.57;;;0.70;;
53389;SDS011;39288;42.970;1.524;2023-04-24T00:27:23;1.57;;;0.73;;
53389;SDS011;39288;42.970;1.524;2023-04-24T00:28:23;3.30;;;1.70;;
53389;SDS011;39288;42.970;1.524;2023-04-24T00:29:24;3.00;;;1.30;;
53389;SDS011;39288;42.970;1.524;2023-04-24T00:30:24;4.37;;;1.80;;
53389;SDS011;39288;42.970;1.524;2023-04-24T00:31:25;2.70;;;1.20;;
53389;SDS011;39288;42.970;1.524;2023-04-24T00:32:25;3.43;;;1.37;;
53389;SDS011;39288;42.970;1.524;2023-04-24T00:33:26;3.07;;;1.20;;
53389;SDS011;39288;42.970;1.524;2023-04-24T00:34:26;3.23;;;1.20;;
53389;SDS011;39288;42.970;1.524;2023-04-24T00:35:27;5.33;;;1.37;;
53389;SDS011;39288;42.970;1.524;2023-04-24T00:36:27;2.63;;;1.10;;
53389;SDS011;39288;42.970;1.524;2023-04-24T00:37:28;3.00;;;1.03;;
53389;SDS011;39288;42.970;1.524;2023-04-24T00:38:28;2.33;;;0.93;;
53389;SDS011;39288;42.970;1.524;2023-04-24T00:39:29;3.50;;;1.20;;
53389;SDS011;39288;42.970;1.524;2023-04-24T00:40:29;2.27;;;0.93;;
53389;SDS011;39288;42.970;1.524;2023-04-24T00:41:30;2.93;;;1.13;;
53389;SDS011;39288;42.970;1.524;2023-04-24T00:42:30;2.97;;;0.90;;
53389;SDS011;39288;42.970;1.524;2023-04-24T00:43:31;2.17;;;0.70;;
53389;SDS011;39288;42.970;1.524;2023-04-24T00:44:32;2.20;;;0.80;;
53389;SDS011;39288;42.970;1.524;2023-04-24T00:45:34;2.08;;;0.60;;
53389;SDS011;39288;42.970;1.524;2023-04-24T00:46:35;3.70;;;1.07;;
53389;SDS011;39288;42.970;1.524;2023-04-24T00:47:36;2.57;;;0.60;;
53389;SDS011;39288;42.970;1.524;2023-04-24T00:48:37;6.17;;;1.13;;
53389;SDS011;39288;42.970;1.524;2023-04-24T00:49:39;2.65;;;0.88;;
53389;SDS011;39288;42.970;1.524;2023-04-24T00:50:39;2.30;;;0.70;;
53389;SDS011;39288;42.970;1.524;2023-04-24T00:51:40;2.40;;;0.70;;
53389;SDS011;39288;42.970;1.524;2023-04-24T00:52:45;3.00;;;0.77;;
53389;SDS011;39288;42.970;1.524;2023-04-24T00:53:45;4.50;;;1.00;;
53389;SDS011;39288;42.970;1.524;2023-04-24T00:54:46;4.47;;;0.97;;
53389;SDS011;39288;42.970;1.524;2023-04-24T00:55:46;2.60;;;0.83;;
53389;SDS011;39288;42.970;1.524;2023-04-24T00:56:47;2.30;;;0.70;;
53389;SDS011;39288;42.970;1.524;2023-04-24T00:57:47;2.37;;;1.00;;
53389;SDS011;39288;42.970;1.524;2023-04-24T00:58:49;2.50;;;1.10;;
53389;SDS011;39288;42.970;1.524;2023-04-24T00:59:50;7.13;;;1.10;;
53389;SDS011;39288;42.970;1.524;2023-04-24T01:00:51;4.20;;;1.05;;
53389;SDS011;39288;42.970;1.524;2023-04-24T01:01:53;3.65;;;1.05;;
53389;SDS011;39288;42.970;1.524;2023-04-24T01:02:53;4.87;;;1.30;;
53389;SDS011;39288;42.970;1.524;2023-04-24T01:03:55;2.80;;;0.80;;
53389;SDS011;39288;42.970;1.524;2023-04-24T01:04:57;4.93;;;0.88;;
53389;SDS011;39288;42.970;1.524;2023-04-24T01:05:58;5.43;;;1.07;;
53389;SDS011;39288;42.970;1.524;2023-04-24T01:06:58;3.70;;;1.17;;
53389;SDS011;39288;42.970;1.524;2023-04-24T01:08:00;6.25;;;1.10;;
53389;SDS011;39288;42.970;1.524;2023-04-24T01:09:01;2.50;;;0.88;;
53389;SDS011;39288;42.970;1.524;2023-04-24T01:10:02;5.10;;;1.52;;
53389;SDS011;39288;42.970;1.524;2023-04-24T01:11:03;2.92;;;1.10;;
53389;SDS011;39288;42.970;1.524;2023-04-24T01:12:04;3.22;;;0.90;;
53389;SDS011;39288;42.970;1.524;2023-04-24T01:13:05;2.27;;;0.97;;
53389;SDS011;39288;42.970;1.524;2023-04-24T01:14:05;3.50;;;1.10;;
53389;SDS011;39288;42.970;1.524;2023-04-24T01:15:06;8.47;;;1.30;;
53389;SDS011;39288;42.970;1.524;2023-04-24T01:16:07;3.50;;;0.88;;
53389;SDS011;39288;42.970;1.524;2023-04-24T01:17:08;5.63;;;1.03;;
53389;SDS011;39288;42.970;1.524;2023-04-24T01:18:09;4.10;;;0.90;;
53389;SDS011;39288;42.970;1.524;2023-04-24T01:19:10;3.73;;;1.00;;
53389;SDS011;39288;42.970;1.524;2023-04-24T01:20:12;2.95;;;0.85;;
53389;SDS011;39288;42.970;1.524;2023-04-24T01:21:13;3.50;;;0.77;;
53389;SDS011;39288;42.970;1.524;2023-04-24T01:22:16;6.05;;;1.33;;
53389;SDS011;39288;42.970;1.524;2023-04-24T01:23:17;4.57;;;1.30;;
53389;SDS011;39288;42.970;1.524;2023-04-24T01:24:17;3.90;;;0.97;;
53389;SDS011;39288;42.970;1.524;2023-04-24T01:26:19;2.72;;;0.90;;
53389;SDS011;39288;42.970;1.524;2023-04-24T01:27:20;6.60;;;1.43;;
53389;SDS011;39288;42.970;1.524;2023-04-24T01:28:21;4.00;;;1.00;;
53389;SDS011;39288;42.970;1.524;2023-04-24T01:29:22;4.35;;;1.20;;
53389;SDS011;39288;42.970;1.524;2023-04-24T01:30:22;5.97;;;1.50;;
53389;SDS011;39288;42.970;1.524;2023-04-24T01:31:23;7.77;;;1.30;;
53389;SDS011;39288;42.970;1.524;2023-04-24T01:32:24;4.53;;;1.33;;
53389;SDS011;39288;42.970;1.524;2023-04-24T01:33:25;4.95;;;1.30;;
53389;SDS011;39288;42.970;1.524;2023-04-24T01:34:26;3.30;;;1.07;;
53389;SDS011;39288;42.970;1.524;2023-04-24T01:35:27;1.90;;;1.05;;
53389;SDS011;39288;42.970;1.524;2023-04-24T01:36:27;4.17;;;1.00;;
53389;SDS011;39288;42.970;1.524;2023-04-24T01:37:29;4.53;;;0.90;;
53389;SDS011;39288;42.970;1.524;2023-04-24T01:38:29;2.77;;;0.90;;
53389;SDS011;39288;42.970;1.524;2023-04-24T01:39:30;2.57;;;1.00;;
53389;SDS011;39288;42.970;1.524;2023-04-24T01:40:31;6.23;;;1.77;;
53389;SDS011;39288;42.970;1.524;2023-04-24T01:41:32;8.23;;;1.45;;
53389;SDS011;39288;42.970;1.524;2023-04-24T01:42:33;2.83;;;1.00;;
53389;SDS011;39288;42.970;1.524;2023-04-24T01:44:35;3.35;;;0.90;;
53389;SDS011;39288;42.970;1.524;2023-04-24T01:45:35;4.17;;;1.13;;
53389;SDS011;39288;42.970;1.524;2023-04-24T01:46:36;4.07;;;0.97;;
53389;SDS011;39288;42.970;1.524;2023-04-24T01:47:36;5.17;;;1.10;;
53389;SDS011;39288;42.970;1.524;2023-04-24T01:48:37;2.13;;;0.97;;
53389;SDS011;39288;42.970;1.524;2023-04-24T01:49:38;3.10;;;1.00;;
53389;SDS011;39288;42.970;1.524;2023-04-24T01:50:38;2.63;;;0.90;;
53389;SDS011;39288;42.970;1.524;2023-04-24T01:51:39;3.27;;;0.90;;
53389;SDS011;39288;42.970;1.524;2023-04-24T01:52:40;2.50;;;1.00;;
53389;SDS011;39288;42.970;1.524;2023-04-24T01:53:40;6.33;;;1.20;;
53389;SDS011;39288;42.970;1.524;2023-04-24T01:54:41;3.97;;;1.20;;
53389;SDS011;39288;42.970;1.524;2023-04-24T01:55:41;3.57;;;1.00;;
53389;SDS011;39288;42.970;1.524;2023-04-24T01:56:42;2.70;;;0.87;;
53389;SDS011;39288;42.970;1.524;2023-04-24T01:57:43;4.45;;;1.38;;
53389;SDS011;39288;42.970;1.524;2023-04-24T01:58:43;4.20;;;1.00;;
53389;SDS011;39288;42.970;1.524;2023-04-24T01:59:44;3.25;;;1.17;;
53389;SDS011;39288;42.970;1.524;2023-04-24T02:00:45;5.67;;;1.20;;
53389;SDS011;39288;42.970;1.524;2023-04-24T02:01:45;4.27;;;0.70;;
53389;SDS011;39288;42.970;1.524;2023-04-24T02:02:46;2.17;;;1.00;;
53389;SDS011;39288;42.970;1.524;2023-04-24T02:03:46;2.10;;;0.83;;
53389;SDS011;39288;42.970;1.524;2023-04-24T02:04:47;5.43;;;1.17;;
53389;SDS011;39288;42.970;1.524;2023-04-24T02:05:47;3.43;;;1.13;;
53389;SDS011;39288;42.970;1.524;2023-04-24T02:06:48;4.47;;;1.00;;
53389;SDS011;39288;42.970;1.524;2023-04-24T02:07:48;9.47;;;1.20;;
53389;SDS011;39288;42.970;1.524;2023-04-24T02:08:49;4.40;;;1.10;;
53389;SDS011;39288;42.970;1.524;2023-04-24T02:09:49;1.70;;;0.90;;
53389;SDS011;39288;42.970;1.524;2023-04-24T02:10:49;2.77;;;1.00;;
53389;SDS011;39288;42.970;1.524;2023-04-24T02:11:50;5.77;;;1.10;;
53389;SDS011;39288;42.970;1.524;2023-04-24T02:12:51;2.47;;;0.80;;
53389;SDS011;39288;42.970;1.524;2023-04-24T02:13:51;5.53;;;1.13;;
53389;SDS011;39288;42.970;1.524;2023-04-24T02:14:52;2.75;;;0.93;;
53389;SDS011;39288;42.970;1.524;2023-04-24T02:15:53;5.40;;;1.10;;
53389;SDS011;39288;42.970;1.524;2023-04-24T02:16:53;4.43;;;0.90;;
53389;SDS011;39288;42.970;1.524;2023-04-24T02:17:54;2.53;;;0.97;;
53389;SDS011;39288;42.970;1.524;2023-04-24T02:18:54;3.07;;;0.90;;
53389;SDS011;39288;42.970;1.524;2023-04-24T02:19:55;5.90;;;0.83;;
53389;SDS011;39288;42.970;1.524;2023-04-24T02:20:55;3.10;;;0.90;;
53389;SDS011;39288;42.970;1.524;2023-04-24T02:21:56;6.20;;;1.23;;
53389;SDS011;39288;42.970;1.524;2023-04-24T02:22:56;3.23;;;1.07;;
53389;SDS011;39288;42.970;1.524;2023-04-24T02:23:57;2.97;;;1.13;;
53389;SDS011;39288;42.970;1.524;2023-04-24T02:24:57;3.83;;;0.97;;
53389;SDS011;39288;42.970;1.524;2023-04-24T02:25:58;2.17;;;1.03;;
53389;SDS011;39288;42.970;1.524;2023-04-24T02:26:59;5.63;;;1.00;;
53389;SDS011;39288;42.970;1.524;2023-04-24T02:28:00;5.43;;;1.60;;
53389;SDS011;39288;42.970;1.524;2023-04-24T02:29:00;3.97;;;1.07;;
53389;SDS011;39288;42.970;1.524;2023-04-24T02:30:01;3.67;;;1.20;;
53389;SDS011;39288;42.970;1.524;2023-04-24T02:31:03;2.58;;;1.20;;
53389;SDS011;39288;42.970;1.524;2023-04-24T02:32:03;4.03;;;0.83;;
53389;SDS011;39288;42.970;1.524;2023-04-24T02:33:04;3.30;;;1.10;;
53389;SDS011;39288;42.970;1.524;2023-04-24T02:34:04;6.40;;;1.60;;
53389;SDS011;39288;42.970;1.524;2023-04-24T02:35:05;5.60;;;1.00;;
53389;SDS011;39288;42.970;1.524;2023-04-24T02:36:06;10.97;;;1.30;;
53389;SDS011;39288;42.970;1.524;2023-04-24T02:37:07;5.73;;;1.47;;
53389;SDS011;39288;42.970;1.524;2023-04-24T02:38:07;4.97;;;0.93;;
53389;SDS011;39288;42.970;1.524;2023-04-24T02:39:08;1.50;;;1.00;;
53389;SDS011;39288;42.970;1.524;2023-04-24T02:40:08;2.40;;;1.00;;
53389;SDS011;39288;42.970;1.524;2023-04-24T02:41:09;5.60;;;1.02;;
53389;SDS011;39288;42.970;1.524;2023-04-24T02:42:10;5.70;;;1.03;;
53389;SDS011;39288;42.970;1.524;2023-04-24T02:43:10;3.93;;;0.90;;
53389;SDS011;39288;42.970;1.524;2023-04-24T02:44:10;2.37;;;0.90;;
53389;SDS011;39288;42.970;1.524;2023-04-24T02:45:11;10.80;;;1.60;;
53389;SDS011;39288;42.970;1.524;2023-04-24T02:46:11;6.53;;;0.90;;
53389;SDS011;39288;42.970;1.524;2023-04-24T02:47:12;4.07;;;1.10;;
53389;SDS011;39288;42.970;1.524;2023-04-24T02:48:12;5.77;;;1.60;;
53389;SDS011;39288;42.970;1.524;2023-04-24T02:49:13;9.13;;;0.93;;
53389;SDS011;39288;42.970;1.524;2023-04-24T02:50:13;1.87;;;0.80;;
53389;SDS011;39288;42.970;1.524;2023-04-24T02:51:14;1.77;;;1.03;;
53389;SDS011;39288;42.970;1.524;2023-04-24T02:52:14;3.43;;;0.93;;
53389;SDS011;39288;42.970;1.524;2023-04-24T02:53:15;2.30;;;0.70;;
53389;SDS011;39288;42.970;1.524;2023-04-24T02:54:15;3.80;;;1.00;;
53389;SDS011;39288;42.970;1.524;2023-04-24T02:55:16;2.03;;;0.83;;
53389;SDS011;39288;42.970;1.524;2023-04-24T02:56:16;3.53;;;0.90;;
53389;SDS011;39288;42.970;1.524;2023-04-24T02:57:17;6.40;;;0.80;;
53389;SDS011;39288;42.970;1.524;2023-04-24T02:58:17;2.57;;;0.90;;
53389;SDS011;39288;42.970;1.524;2023-04-24T02:59:19;3.58;;;0.88;;
53389;SDS011;39288;42.970;1.524;2023-04-24T03:00:20;3.73;;;0.97;;
53389;SDS011;39288;42.970;1.524;2023-04-24T03:01:20;5.90;;;1.27;;
53389;SDS011;39288;42.970;1.524;2023-04-24T03:02:21;4.17;;;1.57;;
53389;SDS011;39288;42.970;1.524;2023-04-24T03:03:21;4.40;;;1.13;;
53389;SDS011;39288;42.970;1.524;2023-04-24T03:04:22;4.77;;;1.00;;
53389;SDS011;39288;42.970;1.524;2023-04-24T03:05:22;3.57;;;1.10;;
53389;SDS011;39288;42.970;1.524;2023-04-24T03:06:23;3.43;;;1.03;;
53389;SDS011;39288;42.970;1.524;2023-04-24T03:07:23;2.93;;;1.20;;
53389;SDS011;39288;42.970;1.524;2023-04-24T03:08:24;6.47;;;1.50;;
53389;SDS011;39288;42.970;1.524;2023-04-24T03:09:24;2.67;;;1.17;;
53389;SDS011;39288;42.970;1.524;2023-04-24T03:10:25;4.90;;;0.80;;
53389;SDS011;39288;42.970;1.524;2023-04-24T03:11:25;3.10;;;1.00;;
53389;SDS011;39288;42.970;1.524;2023-04-24T03:12:26;4.40;;;1.07;;
53389;SDS011;39288;42.970;1.524;2023-04-24T03:13:26;4.60;;;0.93;;
53389;SDS011;39288;42.970;1.524;2023-04-24T03:14:27;5.77;;;1.30;;
53389;SDS011;39288;42.970;1.524;2023-04-24T03:15:29;2.97;;;0.93;;
53389;SDS011;39288;42.970;1.524;2023-04-24T03:16:30;8.87;;;0.93;;
53389;SDS011;39288;42.970;1.524;2023-04-24T03:17:30;3.77;;;1.17;;
53389;SDS011;39288;42.970;1.524;2023-04-24T03:18:31;5.77;;;0.93;;
53389;SDS011;39288;42.970;1.524;2023-04-24T03:19:31;5.70;;;1.10;;
53389;SDS011;39288;42.970;1.524;2023-04-24T03:20:32;2.63;;;1.10;;
53389;SDS011;39288;42.970;1.524;2023-04-24T03:21:32;3.17;;;0.80;;
53389;SDS011;39288;42.970;1.524;2023-04-24T03:22:33;5.87;;;1.20;;
53389;SDS011;39288;42.970;1.524;2023-04-24T03:23:35;1.90;;;0.50;;
53389;SDS011;39288;42.970;1.524;2023-04-24T03:24:36;5.80;;;0.90;;
53389;SDS011;39288;42.970;1.524;2023-04-24T03:25:36;5.32;;;0.90;;
53389;SDS011;39288;42.970;1.524;2023-04-24T03:26:37;2.70;;;0.90;;
53389;SDS011;39288;42.970;1.524;2023-04-24T03:27:37;4.00;;;0.97;;
53389;SDS011;39288;42.970;1.524;2023-04-24T03:28:38;3.23;;;1.13;;
53389;SDS011;39288;42.970;1.524;2023-04-24T03:29:38;2.90;;;0.80;;
53389;SDS011;39288;42.970;1.524;2023-04-24T03:30:39;2.27;;;0.73;;
53389;SDS011;39288;42.970;1.524;2023-04-24T03:31:39;5.07;;;0.87;;
53389;SDS011;39288;42.970;1.524;2023-04-24T03:32:39;4.57;;;1.27;;
53389;SDS011;39288;42.970;1.524;2023-04-24T03:33:40;5.37;;;1.40;;
53389;SDS011;39288;42.970;1.524;2023-04-24T03:34:41;3.97;;;1.20;;
53389;SDS011;39288;42.970;1.524;2023-04-24T03:35:41;2.77;;;1.10;;
53389;SDS011;39288;42.970;1.524;2023-04-24T03:36:42;1.80;;;0.90;;
53389;SDS011;39288;42.970;1.524;2023-04-24T03:37:42;5.27;;;1.13;;
53389;SDS011;39288;42.970;1.524;2023-04-24T03:38:42;2.13;;;0.70;;
53389;SDS011;39288;42.970;1.524;2023-04-24T03:39:43;3.87;;;0.97;;
53389;SDS011;39288;42.970;1.524;2023-04-24T03:40:43;3.20;;;0.70;;
53389;SDS011;39288;42.970;1.524;2023-04-24T03:41:44;5.50;;;1.20;;
53389;SDS011;39288;42.970;1.524;2023-04-24T03:42:44;4.07;;;0.77;;
53389;SDS011;39288;42.970;1.524;2023-04-24T03:43:45;4.73;;;0.80;;
53389;SDS011;39288;42.970;1.524;2023-04-24T03:44:45;3.90;;;0.90;;
53389;SDS011;39288;42.970;1.524;2023-04-24T03:45:46;2.77;;;0.70;;
53389;SDS011;39288;42.970;1.524;2023-04-24T03:46:46;2.87;;;0.80;;
53389;SDS011;39288;42.970;1.524;2023-04-24T03:47:47;3.93;;;1.00;;
53389;SDS011;39288;42.970;1.524;2023-04-24T03:48:47;3.30;;;0.80;;
53389;SDS011;39288;42.970;1.524;2023-04-24T03:49:48;1.30;;;0.53;;
53389;SDS011;39288;42.970;1.524;2023-04-24T03:50:48;5.20;;;0.80;;
53389;SDS011;39288;42.970;1.524;2023-04-24T03:51:48;2.40;;;0.60;;
53389;SDS011;39288;42.970;1.524;2023-04-24T03:52:49;2.77;;;0.90;;
53389;SDS011;39288;42.970;1.524;2023-04-24T03:53:49;4.47;;;0.90;;
53389;SDS011;39288;42.970;1.524;2023-04-24T03:54:50;3.43;;;0.83;;
53389;SDS011;39288;42.970;1.524;2023-04-24T03:55:50;1.63;;;0.80;;
53389;SDS011;39288;42.970;1.524;2023-04-24T03:56:51;4.30;;;1.20;;
53389;SDS011;39288;42.970;1.524;2023-04-24T03:57:51;4.90;;;1.10;;
53389;SDS011;39288;42.970;1.524;2023-04-24T03:58:52;2.97;;;1.20;;
53389;SDS011;39288;42.970;1.524;2023-04-24T03:59:52;5.20;;;1.10;;
53389;SDS011;39288;42.970;1.524;2023-04-24T04:00:53;4.32;;;1.15;;
53389;SDS011;39288;42.970;1.524;2023-04-24T04:01:54;5.67;;;1.73;;
53389;SDS011;39288;42.970;1.524;2023-04-24T04:02:54;6.60;;;1.80;;
53389;SDS011;39288;42.970;1.524;2023-04-24T04:03:55;2.27;;;1.47;;
53389;SDS011;39288;42.970;1.524;2023-04-24T04:04:55;3.20;;;1.37;;
53389;SDS011;39288;42.970;1.524;2023-04-24T04:05:56;5.73;;;1.60;;
53389;SDS011;39288;42.970;1.524;2023-04-24T04:06:56;2.90;;;1.30;;
53389;SDS011;39288;42.970;1.524;2023-04-24T04:08:01;4.35;;;1.25;;
53389;SDS011;39288;42.970;1.524;2023-04-24T04:09:01;2.93;;;1.20;;
53389;SDS011;39288;42.970;1.524;2023-04-24T04:10:03;8.20;;;1.75;;
53389;SDS011;39288;42.970;1.524;2023-04-24T04:11:04;5.33;;;1.27;;
53389;SDS011;39288;42.970;1.524;2023-04-24T04:12:04;4.13;;;1.73;;
53389;SDS011;39288;42.970;1.524;2023-04-24T04:13:04;6.40;;;1.63;;
53389;SDS011;39288;42.970;1.524;2023-04-24T04:14:06;5.18;;;2.05;;
53389;SDS011;39288;42.970;1.524;2023-04-24T04:15:07;5.90;;;1.70;;
53389;SDS011;39288;42.970;1.524;2023-04-24T04:16:08;6.37;;;1.63;;
53389;SDS011;39288;42.970;1.524;2023-04-24T04:17:09;3.00;;;1.10;;
53389;SDS011;39288;42.970;1.524;2023-04-24T04:18:09;6.43;;;1.97;;
53389;SDS011;39288;42.970;1.524;2023-04-24T04:19:10;3.93;;;0.90;;
53389;SDS011;39288;42.970;1.524;2023-04-24T04:20:10;3.87;;;1.63;;
53389;SDS011;39288;42.970;1.524;2023-04-24T04:21:11;2.97;;;1.38;;
53389;SDS011;39288;42.970;1.524;2023-04-24T04:22:12;3.83;;;1.27;;
53389;SDS011;39288;42.970;1.524;2023-04-24T04:23:12;5.77;;;1.87;;
53389;SDS011;39288;42.970;1.524;2023-04-24T04:24:13;3.10;;;1.20;;
53389;SDS011;39288;42.970;1.524;2023-04-24T04:25:13;3.83;;;1.10;;
53389;SDS011;39288;42.970;1.524;2023-04-24T04:26:14;4.20;;;1.63;;
53389;SDS011;39288;42.970;1.524;2023-04-24T04:27:14;5.67;;;1.57;;
53389;SDS011;39288;42.970;1.524;2023-04-24T04:28:16;3.72;;;1.42;;
53389;SDS011;39288;42.970;1.524;2023-04-24T04:29:19;5.13;;;1.23;;
53389;SDS011;39288;42.970;1.524;2023-04-24T04:30:20;4.57;;;1.63;;
53389;SDS011;39288;42.970;1.524;2023-04-24T04:31:20;2.03;;;1.30;;
53389;SDS011;39288;42.970;1.524;2023-04-24T04:32:21;3.03;;;1.37;;
53389;SDS011;39288;42.970;1.524;2023-04-24T04:33:22;3.72;;;1.45;;
53389;SDS011;39288;42.970;1.524;2023-04-24T04:34:27;3.05;;;1.20;;
53389;SDS011;39288;42.970;1.524;2023-04-24T04:35:27;3.42;;;1.50;;
53389;SDS011;39288;42.970;1.524;2023-04-24T04:36:28;6.23;;;1.97;;
53389;SDS011;39288;42.970;1.524;2023-04-24T04:37:29;4.22;;;1.33;;
53389;SDS011;39288;42.970;1.524;2023-04-24T04:39:31;4.57;;;1.85;;
53389;SDS011;39288;42.970;1.524;2023-04-24T04:40:32;3.60;;;1.50;;
53389;SDS011;39288;42.970;1.524;2023-04-24T04:41:32;3.70;;;1.30;;
53389;SDS011;39288;42.970;1.524;2023-04-24T04:42:35;3.90;;;1.38;;
53389;SDS011;39288;42.970;1.524;2023-04-24T04:43:35;4.57;;;1.67;;
53389;SDS011;39288;42.970;1.524;2023-04-24T04:44:36;2.50;;;1.30;;
53389;SDS011;39288;42.970;1.524;2023-04-24T04:45:38;2.90;;;1.40;;
53389;SDS011;39288;42.970;1.524;2023-04-24T04:46:40;3.10;;;1.73;;
53389;SDS011;39288;42.970;1.524;2023-04-24T04:47:41;3.63;;;1.60;;
53389;SDS011;39288;42.970;1.524;2023-04-24T04:48:42;2.87;;;1.60;;
53389;SDS011;39288;42.970;1.524;2023-04-24T04:49:43;2.63;;;1.23;;
53389;SDS011;39288;42.970;1.524;2023-04-24T04:50:44;3.17;;;1.57;;
53389;SDS011;39288;42.970;1.524;2023-04-24T04:51:44;2.37;;;1.50;;
53389;SDS011;39288;42.970;1.524;2023-04-24T04:52:45;1.97;;;1.50;;
53389;SDS011;39288;42.970;1.524;2023-04-24T04:53:45;3.77;;;1.60;;
53389;SDS011;39288;42.970;1.524;2023-04-24T04:54:46;4.97;;;1.73;;
53389;SDS011;39288;42.970;1.524;2023-04-24T04:55:46;3.63;;;1.40;;
53389;SDS011;39288;42.970;1.524;2023-04-24T04:56:47;3.77;;;1.50;;
53389;SDS011;39288;42.970;1.524;2023-04-24T04:57:50;4.75;;;1.92;;
53389;SDS011;39288;42.970;1.524;2023-04-24T04:58:51;2.80;;;1.67;;
53389;SDS011;39288;42.970;1.524;2023-04-24T04:59:51;3.03;;;1.23;;
53389;SDS011;39288;42.970;1.524;2023-04-24T05:00:51;6.83;;;1.50;;
53389;SDS011;39288;42.970;1.524;2023-04-24T05:01:52;2.57;;;1.53;;
53389;SDS011;39288;42.970;1.524;2023-04-24T05:02:53;3.33;;;1.40;;
53389;SDS011;39288;42.970;1.524;2023-04-24T05:03:53;6.40;;;1.60;;
53389;SDS011;39288;42.970;1.524;2023-04-24T05:04:54;3.93;;;1.70;;
53389;SDS011;39288;42.970;1.524;2023-04-24T05:05:55;3.53;;;1.87;;
53389;SDS011;39288;42.970;1.524;2023-04-24T05:06:55;3.93;;;1.90;;
53389;SDS011;39288;42.970;1.524;2023-04-24T05:07:56;2.30;;;1.50;;
53389;SDS011;39288;42.970;1.524;2023-04-24T05:08:56;3.67;;;1.60;;
53389;SDS011;39288;42.970;1.524;2023-04-24T05:09:57;2.27;;;1.60;;
53389;SDS011;39288;42.970;1.524;2023-04-24T05:10:57;2.73;;;1.90;;
53389;SDS011;39288;42.970;1.524;2023-04-24T05:11:58;3.83;;;1.70;;
53389;SDS011;39288;42.970;1.524;2023-04-24T05:12:58;2.63;;;1.60;;
53389;SDS011;39288;42.970;1.524;2023-04-24T05:13:59;3.07;;;1.60;;
53389;SDS011;39288;42.970;1.524;2023-04-24T05:14:59;3.60;;;1.77;;
53389;SDS011;39288;42.970;1.524;2023-04-24T05:16:00;2.27;;;1.63;;
53389;SDS011;39288;42.970;1.524;2023-04-24T05:17:00;3.73;;;1.83;;
53389;SDS011;39288;42.970;1.524;2023-04-24T05:18:01;4.77;;;1.77;;
53389;SDS011;39288;42.970;1.524;2023-04-24T05:19:02;6.07;;;1.83;;
53389;SDS011;39288;42.970;1.524;2023-04-24T05:20:03;5.87;;;2.07;;
53389;SDS011;39288;42.970;1.524;2023-04-24T05:21:07;7.95;;;1.67;;
53389;SDS011;39288;42.970;1.524;2023-04-24T05:22:07;2.60;;;1.93;;
53389;SDS011;39288;42.970;1.524;2023-04-24T05:23:09;2.90;;;1.63;;
53389;SDS011;39288;42.970;1.524;2023-04-24T05:24:10;5.90;;;2.13;;
53389;SDS011;39288;42.970;1.524;2023-04-24T05:25:10;6.77;;;1.70;;
53389;SDS011;39288;42.970;1.524;2023-04-24T05:26:13;4.20;;;1.98;;
53389;SDS011;39288;42.970;1.524;2023-04-24T05:27:13;5.40;;;1.75;;
53389;SDS011;39288;42.970;1.524;2023-04-24T05:28:14;4.07;;;2.00;;
53389;SDS011;39288;42.970;1.524;2023-04-24T05:29:15;5.47;;;1.42;;
53389;SDS011;39288;42.970;1.524;2023-04-24T05:30:15;4.43;;;1.90;;
53389;SDS011;39288;42.970;1.524;2023-04-24T05:31:16;2.70;;;1.40;;
53389;SDS011;39288;42.970;1.524;2023-04-24T05:32:17;3.28;;;1.85;;
53389;SDS011;39288;42.970;1.524;2023-04-24T05:33:18;2.80;;;1.60;;
53389;SDS011;39288;42.970;1.524;2023-04-24T05:34:18;7.20;;;2.00;;
53389;SDS011;39288;42.970;1.524;2023-04-24T05:35:19;4.47;;;1.70;;
53389;SDS011;39288;42.970;1.524;2023-04-24T05:36:19;7.17;;;1.57;;
53389;SDS011;39288;42.970;1.524;2023-04-24T05:37:20;3.47;;;1.30;;
53389;SDS011;39288;42.970;1.524;2023-04-24T05:38:20;1.77;;;1.37;;
53389;SDS011;39288;42.970;1.524;2023-04-24T05:39:21;2.93;;;1.47;;
53389;SDS011;39288;42.970;1.524;2023-04-24T05:40:22;4.50;;;1.47;;
53389;SDS011;39288;42.970;1.524;2023-04-24T05:41:22;8.37;;;2.07;;
53389;SDS011;39288;42.970;1.524;2023-04-24T05:42:23;2.50;;;1.30;;
53389;SDS011;39288;42.970;1.524;2023-04-24T05:43:23;4.43;;;1.60;;
53389;SDS011;39288;42.970;1.524;2023-04-24T05:44:24;2.83;;;1.37;;
53389;SDS011;39288;42.970;1.524;2023-04-24T05:45:24;4.37;;;1.23;;
53389;SDS011;39288;42.970;1.524;2023-04-24T05:46:25;5.43;;;1.50;;
53389;SDS011;39288;42.970;1.524;2023-04-24T05:47:25;4.70;;;1.60;;
53389;SDS011;39288;42.970;1.524;2023-04-24T05:48:26;3.47;;;1.73;;
53389;SDS011;39288;42.970;1.524;2023-04-24T05:49:26;4.17;;;1.57;;
53389;SDS011;39288;42.970;1.524;2023-04-24T05:50:27;5.03;;;1.50;;
53389;SDS011;39288;42.970;1.524;2023-04-24T05:51:27;5.00;;;1.40;;
53389;SDS011;39288;42.970;1.524;2023-04-24T05:52:28;3.27;;;1.00;;
53389;SDS011;39288;42.970;1.524;2023-04-24T05:53:28;4.30;;;1.20;;
53389;SDS011;39288;42.970;1.524;2023-04-24T05:54:29;2.90;;;1.10;;
53389;SDS011;39288;42.970;1.524;2023-04-24T05:55:30;4.67;;;1.27;;
53389;SDS011;39288;42.970;1.524;2023-04-24T05:56:31;2.38;;;1.15;;
53389;SDS011;39288;42.970;1.524;2023-04-24T05:57:32;3.00;;;1.60;;
53389;SDS011;39288;42.970;1.524;2023-04-24T05:58:32;5.73;;;1.43;;
53389;SDS011;39288;42.970;1.524;2023-04-24T05:59:33;3.20;;;1.40;;
53389;SDS011;39288;42.970;1.524;2023-04-24T06:00:38;2.95;;;1.30;;
53389;SDS011;39288;42.970;1.524;2023-04-24T06:01:41;8.93;;;1.20;;
53389;SDS011;39288;42.970;1.524;2023-04-24T06:02:41;7.77;;;1.10;;
53389;SDS011;39288;42.970;1.524;2023-04-24T06:03:42;2.70;;;1.20;;
53389;SDS011;39288;42.970;1.524;2023-04-24T06:04:43;4.13;;;1.30;;
53389;SDS011;39288;42.970;1.524;2023-04-24T06:05:43;4.53;;;1.33;;
53389;SDS011;39288;42.970;1.524;2023-04-24T06:06:44;3.13;;;1.27;;
53389;SDS011;39288;42.970;1.524;2023-04-24T06:07:44;4.10;;;1.80;;
53389;SDS011;39288;42.970;1.524;2023-04-24T06:08:45;2.43;;;1.13;;
53389;SDS011;39288;42.970;1.524;2023-04-24T06:09:45;4.30;;;1.73;;
53389;SDS011;39288;42.970;1.524;2023-04-24T06:10:46;4.83;;;1.40;;